createdAt,value
2019-02-06T00:01:20.747Z,12.30
2019-02-06T00:03:47.760Z,11.37
2019-02-06T00:06:14.772Z,14.33
2019-02-06T00:08:41.811Z,18.50
2019-02-06T00:11:09.221Z,17.90
2019-02-06T00:13:36.346Z,18.00
2019-02-06T00:16:04.161Z,10.87
2019-02-06T00:18:31.260Z,12.63
2019-02-06T00:20:58.272Z,15.37
2019-02-06T00:23:25.097Z,11.00
2019-02-06T00:25:52.109Z,17.20
2019-02-06T00:28:19.110Z,14.67
2019-02-06T00:30:46.658Z,9.83
2019-02-06T00:33:13.570Z,10.80
2019-02-06T00:35:40.461Z,8.97
2019-02-06T00:38:07.517Z,13.10
2019-02-06T00:40:34.361Z,18.10
2019-02-06T00:43:01.322Z,16.33
2019-02-06T00:45:28.263Z,12.73
2019-02-06T00:47:55.257Z,11.30
2019-02-06T00:50:22.271Z,11.80
2019-02-06T00:52:49.330Z,13.87
2019-02-06T00:55:16.244Z,14.63
2019-02-06T00:57:43.306Z,8.87
2019-02-06T01:00:17.458Z,12.40
2019-02-06T01:02:44.519Z,17.87
2019-02-06T01:05:12.778Z,16.33
2019-02-06T01:07:39.893Z,10.50
2019-02-06T01:10:08.386Z,12.33
2019-02-06T01:12:35.407Z,17.07
2019-02-06T01:15:02.570Z,13.73
2019-02-06T01:17:29.486Z,14.33
2019-02-06T01:19:56.302Z,17.00
2019-02-06T01:22:23.258Z,15.90
2019-02-06T01:24:50.570Z,11.73
2019-02-06T01:27:17.490Z,19.80
2019-02-06T01:29:44.349Z,16.40
2019-02-06T01:32:11.452Z,14.27
2019-02-06T01:34:38.254Z,14.63
2019-02-06T01:37:05.327Z,13.13
2019-02-06T01:39:32.439Z,10.40
2019-02-06T01:41:59.472Z,14.07
2019-02-06T01:44:26.529Z,11.13
2019-02-06T01:46:53.529Z,13.00
2019-02-06T01:49:20.343Z,11.57
2019-02-06T01:51:47.306Z,15.03
2019-02-06T01:54:14.228Z,14.57
2019-02-06T01:56:41.063Z,16.40
2019-02-06T01:59:08.128Z,18.60
2019-02-06T02:01:35.034Z,17.10
2019-02-06T02:04:02.534Z,17.93
2019-02-06T02:06:31.310Z,13.10
2019-02-06T02:09:01.262Z,16.30
2019-02-06T02:11:28.283Z,9.43
2019-02-06T02:13:55.129Z,17.90
2019-02-06T02:16:22.165Z,14.57
2019-02-06T02:18:49.096Z,12.87
2019-02-06T02:21:16.164Z,13.47
2019-02-06T02:23:43.183Z,12.10
2019-02-06T02:26:09.981Z,13.90
2019-02-06T02:28:36.921Z,17.67
2019-02-06T02:31:03.925Z,9.97
2019-02-06T02:33:30.954Z,15.03
2019-02-06T02:35:57.908Z,11.73
2019-02-06T02:38:24.906Z,12.90
2019-02-06T02:40:52.281Z,13.47
2019-02-06T02:43:19.322Z,14.83
2019-02-06T02:45:46.349Z,11.50
2019-02-06T02:48:13.371Z,14.70
2019-02-06T02:50:40.236Z,13.97
2019-02-06T02:53:07.247Z,12.27
2019-02-06T02:55:34.165Z,14.23
2019-02-06T02:58:01.054Z,11.80
2019-02-06T03:00:40.956Z,14.77
2019-02-06T03:03:26.291Z,15.20
2019-02-06T03:05:53.114Z,10.77
2019-02-06T03:08:20.049Z,11.00
2019-02-06T03:10:47.497Z,19.33
2019-02-06T03:13:14.500Z,13.67
2019-02-06T03:15:41.394Z,16.37
2019-02-06T03:18:08.341Z,12.40
2019-02-06T03:20:35.352Z,13.60
2019-02-06T03:23:02.394Z,16.00
2019-02-06T03:25:29.219Z,15.20
2019-02-06T03:27:56.451Z,21.37
2019-02-06T03:30:23.586Z,14.53
2019-02-06T03:32:50.507Z,16.80
2019-02-06T03:35:17.507Z,12.33
2019-02-06T03:37:46.034Z,15.37
2019-02-06T03:40:15.171Z,14.77
2019-02-06T03:42:43.387Z,12.43
2019-02-06T03:45:10.502Z,19.40
2019-02-06T03:47:37.894Z,20.33
2019-02-06T03:50:06.986Z,14.27
2019-02-06T03:52:33.891Z,16.00
2019-02-06T03:55:00.845Z,17.97
2019-02-06T03:57:27.738Z,17.43
2019-02-06T03:59:54.543Z,12.97
2019-02-06T04:02:21.594Z,20.00
2019-02-06T04:04:48.807Z,19.30
2019-02-06T04:07:15.910Z,22.00
2019-02-06T04:09:42.930Z,25.43
2019-02-06T04:12:09.864Z,22.77
2019-02-06T04:14:36.975Z,24.33
2019-02-06T04:17:04.124Z,24.00
2019-02-06T04:19:32.452Z,22.93
2019-02-06T04:21:59.414Z,23.77
2019-02-06T04:24:26.580Z,20.27
2019-02-06T04:26:53.484Z,34.00
2019-02-06T04:29:20.382Z,28.13
2019-02-06T04:31:47.479Z,25.73
2019-02-06T04:34:14.301Z,28.63
2019-02-06T04:36:41.302Z,18.87
2019-02-06T04:39:08.247Z,27.10
2019-02-06T04:41:35.574Z,24.47
2019-02-06T04:44:02.816Z,21.43
2019-02-06T04:46:29.969Z,20.80
2019-02-06T04:48:56.796Z,28.57
2019-02-06T04:51:23.703Z,19.43
2019-02-06T04:53:50.646Z,29.00
2019-02-06T04:56:17.560Z,22.53
2019-02-06T04:58:44.590Z,20.47
2019-02-06T05:01:12.044Z,20.80
2019-02-06T05:03:38.953Z,25.77
2019-02-06T05:06:05.963Z,20.57
2019-02-06T05:08:32.929Z,19.53
2019-02-06T05:10:59.841Z,16.57
2019-02-06T05:13:26.666Z,20.23
2019-02-06T05:15:53.519Z,17.23
2019-02-06T05:18:21.741Z,17.17
2019-02-06T05:20:49.050Z,15.30
2019-02-06T05:23:15.986Z,16.20
2019-02-06T05:25:42.998Z,19.10
2019-02-06T05:28:10.123Z,18.23
2019-02-06T05:30:37.248Z,23.80
2019-02-06T05:33:04.657Z,18.03
2019-02-06T05:35:31.985Z,22.17
2019-02-06T05:37:59.480Z,23.97
2019-02-06T05:40:26.791Z,24.83
2019-02-06T05:42:54.187Z,17.20
2019-02-06T05:45:21.695Z,21.00
2019-02-06T05:47:48.998Z,19.53
2019-02-06T05:50:16.094Z,18.97
2019-02-06T05:52:43.137Z,17.93
2019-02-06T05:55:10.592Z,18.67
2019-02-06T05:57:37.542Z,17.10
2019-02-06T06:00:09.934Z,16.73
2019-02-06T06:02:36.841Z,18.13
2019-02-06T06:05:04.569Z,21.30
2019-02-06T06:07:44.112Z,16.80
2019-02-06T06:10:00.459Z,20.23
2019-02-06T06:12:27.454Z,20.57
2019-02-06T06:14:54.329Z,19.90
2019-02-06T06:17:21.639Z,19.13
2019-02-06T06:19:48.480Z,15.97
2019-02-06T06:22:15.316Z,19.10
2019-02-06T06:24:42.329Z,18.30
2019-02-06T06:27:09.451Z,17.97
2019-02-06T06:29:36.291Z,21.90
2019-02-06T06:32:03.303Z,28.07
2019-02-06T06:34:30.200Z,25.63
2019-02-06T06:36:59.234Z,23.07
2019-02-06T06:39:45.796Z,18.97
2019-02-06T06:42:12.827Z,23.13
2019-02-06T06:44:39.863Z,24.60
2019-02-06T06:47:06.875Z,21.17
2019-02-06T06:49:33.810Z,24.17
2019-02-06T06:52:03.758Z,17.40
2019-02-06T06:54:29.322Z,20.57
2019-02-06T06:56:56.170Z,22.87
2019-02-06T06:59:22.994Z,19.60
2019-02-06T07:01:50.032Z,20.10
2019-02-06T07:04:17.182Z,16.73
2019-02-06T07:06:46.405Z,23.57
2019-02-06T07:09:13.009Z,25.20
2019-02-06T07:11:39.836Z,24.60
2019-02-06T07:14:06.740Z,20.97
2019-02-06T07:16:33.869Z,22.13
2019-02-06T07:19:00.969Z,20.77
2019-02-06T07:21:27.964Z,26.23
2019-02-06T07:23:54.764Z,20.70
2019-02-06T07:26:21.923Z,24.10
2019-02-06T07:28:48.826Z,24.03
2019-02-06T07:31:15.753Z,22.37
2019-02-06T07:33:42.914Z,22.57
2019-02-06T07:36:09.746Z,23.97
2019-02-06T07:38:36.778Z,23.57
2019-02-06T07:41:03.710Z,20.00
2019-02-06T07:43:30.932Z,17.57
2019-02-06T07:45:58.078Z,15.53
2019-02-06T07:48:25.042Z,16.37
2019-02-06T07:50:51.853Z,15.30
2019-02-06T07:53:18.749Z,15.67
2019-02-06T07:55:45.691Z,18.03
2019-02-06T07:58:12.506Z,16.27
2019-02-06T08:00:39.501Z,16.00
2019-02-06T08:03:06.570Z,15.43
2019-02-06T08:05:33.857Z,21.10
2019-02-06T08:08:00.768Z,21.47
2019-02-06T08:10:29.908Z,15.00
2019-02-06T08:12:57.018Z,23.57
2019-02-06T08:15:24.937Z,16.80
2019-02-06T08:17:51.979Z,24.43
2019-02-06T08:20:21.804Z,25.83
2019-02-06T08:22:49.203Z,20.50
2019-02-06T08:25:16.392Z,19.80
2019-02-06T08:27:43.398Z,20.10
2019-02-06T08:30:14.634Z,23.20
2019-02-06T08:32:41.574Z,26.50
2019-02-06T08:35:08.754Z,25.87
2019-02-06T08:37:35.840Z,33.20
2019-02-06T08:40:04.050Z,33.77
2019-02-06T08:42:30.863Z,34.10
2019-02-06T08:44:57.661Z,44.83
2019-02-06T08:47:24.749Z,39.90
2019-02-06T08:49:51.650Z,34.73
2019-02-06T08:52:18.669Z,36.77
2019-02-06T08:54:45.789Z,45.17
2019-02-06T08:57:12.786Z,52.07
2019-02-06T08:59:40.289Z,45.67
2019-02-06T09:02:07.517Z,43.77
2019-02-06T09:04:34.653Z,47.33
2019-02-06T09:07:01.779Z,49.87
2019-02-06T09:09:28.730Z,53.20
2019-02-06T09:11:55.793Z,52.43
2019-02-06T09:14:22.606Z,54.67
2019-02-06T09:16:49.650Z,61.30
2019-02-06T09:19:16.754Z,63.60
2019-02-06T09:21:43.574Z,63.33
2019-02-06T09:24:10.422Z,67.67
2019-02-06T09:26:37.366Z,63.30
2019-02-06T09:29:04.330Z,70.70
2019-02-06T09:31:31.176Z,76.13
2019-02-06T09:33:58.078Z,79.03
2019-02-06T09:36:24.890Z,91.63
2019-02-06T09:38:52.034Z,109.93
2019-02-06T09:41:18.933Z,94.40
2019-02-06T09:43:45.846Z,101.87
2019-02-06T09:46:12.899Z,94.43
2019-02-06T09:48:39.908Z,89.07
2019-02-06T09:51:06.809Z,94.20
2019-02-06T09:53:33.841Z,98.73
2019-02-06T09:56:00.691Z,91.23
2019-02-06T09:58:27.698Z,89.23
2019-02-06T10:00:54.641Z,83.90
2019-02-06T10:03:21.618Z,80.27
2019-02-06T10:05:48.753Z,82.57
2019-02-06T10:08:15.710Z,95.17
2019-02-06T10:10:42.823Z,85.70
2019-02-06T10:13:09.834Z,76.97
2019-02-06T10:15:37.631Z,81.00
2019-02-06T10:18:05.109Z,71.70
2019-02-06T10:20:40.645Z,69.73
2019-02-06T10:23:07.865Z,63.60
2019-02-06T10:25:35.598Z,71.27
2019-02-06T10:28:02.962Z,63.93
2019-02-06T10:30:32.127Z,60.40
2019-02-06T10:32:59.842Z,55.07
2019-02-06T10:35:27.030Z,58.40
2019-02-06T10:37:54.135Z,54.97
2019-02-06T10:40:21.186Z,52.83
2019-02-06T10:42:48.242Z,55.53
2019-02-06T10:45:15.593Z,56.00
2019-02-06T10:47:42.697Z,56.30
2019-02-06T10:50:12.044Z,48.83
2019-02-06T10:52:39.082Z,58.30
2019-02-06T10:55:06.526Z,58.27
2019-02-06T10:57:35.913Z,62.63
2019-02-06T11:00:09.622Z,62.57
2019-02-06T11:02:36.754Z,59.30
2019-02-06T11:05:04.186Z,69.10
2019-02-06T11:07:31.310Z,64.83
2019-02-06T11:09:58.168Z,69.37
2019-02-06T11:12:26.292Z,62.60
2019-02-06T11:14:53.128Z,62.40
2019-02-06T11:17:20.119Z,71.10
2019-02-06T11:19:47.033Z,68.67
2019-02-06T11:22:13.985Z,64.57
2019-02-06T11:24:40.939Z,69.03
2019-02-06T11:27:07.863Z,73.70
2019-02-06T11:29:34.881Z,68.33
2019-02-06T11:32:01.842Z,79.60
2019-02-06T11:34:28.771Z,65.13
2019-02-06T11:36:55.783Z,67.93
2019-02-06T11:39:23.282Z,70.60
2019-02-06T11:41:50.402Z,65.07
2019-02-06T11:44:17.928Z,61.77
2019-02-06T11:46:45.109Z,67.20
2019-02-06T11:49:13.014Z,64.60
2019-02-06T11:51:39.960Z,64.60
2019-02-06T11:54:07.122Z,67.83
2019-02-06T11:56:33.939Z,68.47
2019-02-06T11:59:00.793Z,67.87
2019-02-06T12:01:31.575Z,69.97
2019-02-06T12:03:58.387Z,69.17
2019-02-06T12:06:25.497Z,73.20
2019-02-06T12:08:52.750Z,75.40
2019-02-06T12:11:19.679Z,67.27
2019-02-06T12:13:46.910Z,89.00
2019-02-06T12:16:14.008Z,78.87
2019-02-06T12:18:40.917Z,80.73
2019-02-06T12:21:08.422Z,79.60
2019-02-06T12:23:35.385Z,75.87
2019-02-06T12:26:02.769Z,85.97
2019-02-06T12:28:30.090Z,70.07
2019-02-06T12:30:57.165Z,72.43
2019-02-06T12:33:24.086Z,69.37
2019-02-06T12:35:51.246Z,72.03
2019-02-06T12:38:18.414Z,76.97
2019-02-06T12:40:45.831Z,77.90
2019-02-06T12:43:13.262Z,81.13
2019-02-06T12:45:40.277Z,86.53
2019-02-06T12:48:07.378Z,92.80
2019-02-06T12:50:34.439Z,92.33
2019-02-06T12:53:01.635Z,86.47
2019-02-06T12:55:31.429Z,98.90
2019-02-06T12:57:58.547Z,91.53
2019-02-06T13:00:29.313Z,99.37
2019-02-06T13:02:59.998Z,97.93
2019-02-06T13:05:28.104Z,96.30
2019-02-06T13:07:55.294Z,100.23
2019-02-06T13:10:33.191Z,106.97
2019-02-06T13:12:51.698Z,100.80
2019-02-06T13:15:19.214Z,95.83
2019-02-06T13:17:48.494Z,99.93
2019-02-06T13:20:23.168Z,107.73
2019-02-06T13:22:50.201Z,113.30
2019-02-06T13:25:17.319Z,118.13
2019-02-06T13:27:44.529Z,110.27
2019-02-06T13:30:17.862Z,110.80
2019-02-06T13:32:45.240Z,118.50
2019-02-06T13:35:13.014Z,124.90
2019-02-06T13:37:39.967Z,137.77
2019-02-06T13:40:10.196Z,121.07
2019-02-06T13:42:37.078Z,127.47
2019-02-06T13:45:06.252Z,117.03
2019-02-06T13:47:33.093Z,123.93
2019-02-06T13:50:00.462Z,135.53
2019-02-06T13:52:27.786Z,122.93
2019-02-06T13:54:54.801Z,129.80
2019-02-06T13:57:33.090Z,125.03
2019-02-06T13:59:50.863Z,115.90
2019-02-06T14:02:17.905Z,105.83
2019-02-06T14:04:45.053Z,113.23
2019-02-06T14:07:12.091Z,110.83
2019-02-06T14:09:39.105Z,112.57
2019-02-06T14:12:06.171Z,102.83
2019-02-06T14:14:33.291Z,110.10
2019-02-06T14:17:00.299Z,115.60
2019-02-06T14:19:27.364Z,119.43
2019-02-06T14:21:54.382Z,113.97
2019-02-06T14:24:45.444Z,120.43
2019-02-06T14:27:50.067Z,100.90
2019-02-06T14:30:43.190Z,112.20
2019-02-06T14:33:17.901Z,112.13
2019-02-06T14:36:24.518Z,116.90
2019-02-06T14:39:33.415Z,100.17
2019-02-06T14:42:45.015Z,97.37
2019-02-06T14:45:59.191Z,94.60
2019-02-06T14:48:58.734Z,88.53
2019-02-06T14:52:12.490Z,83.93
2019-02-06T14:54:46.199Z,72.53
2019-02-06T14:57:46.477Z,86.07
2019-02-06T15:01:00.123Z,87.87
2019-02-06T15:04:12.558Z,84.27
2019-02-06T15:07:24.347Z,92.80
2019-02-06T15:10:35.556Z,98.77
2019-02-06T15:13:50.297Z,102.03
2019-02-06T15:17:11.635Z,104.57
2019-02-06T15:20:05.388Z,110.50
2019-02-06T15:23:17.820Z,105.00
2019-02-06T15:26:09.337Z,112.53
2019-02-06T15:28:52.130Z,98.47
2019-02-06T15:31:46.013Z,121.57
2019-02-06T15:34:56.013Z,93.20
2019-02-06T15:37:44.298Z,105.03
2019-02-06T15:40:34.234Z,102.00
2019-02-06T15:43:14.223Z,105.77
2019-02-06T15:46:25.106Z,110.93
2019-02-06T15:49:21.102Z,113.13
2019-02-06T15:52:23.122Z,97.27
2019-02-06T15:55:27.965Z,96.50
2019-02-06T15:58:45.952Z,99.03
2019-02-06T16:01:29.886Z,100.37
2019-02-06T16:05:14.930Z,83.70
2019-02-06T16:08:19.554Z,93.70
2019-02-06T16:11:06.650Z,87.43
2019-02-06T16:14:14.529Z,79.30
2019-02-06T16:17:25.450Z,77.77
2019-02-06T16:20:46.560Z,77.27
2019-02-06T16:23:36.634Z,75.03
2019-02-06T16:26:30.987Z,73.87
2019-02-06T16:30:00.134Z,81.73
2019-02-06T16:32:45.310Z,70.13
2019-02-06T16:35:56.604Z,61.40
2019-02-06T16:38:41.702Z,66.83
2019-02-06T16:41:24.411Z,64.87
2019-02-06T16:44:39.773Z,76.47
2019-02-06T16:47:45.750Z,77.57
2019-02-06T16:50:39.677Z,70.67
2019-02-06T16:53:43.540Z,76.67
2019-02-06T16:56:39.565Z,80.40
2019-02-06T17:00:03.812Z,80.53
2019-02-06T17:03:08.644Z,77.80
2019-02-06T17:05:51.998Z,84.63
2019-02-06T17:08:35.823Z,92.33
2019-02-06T17:11:41.242Z,108.17
2019-02-06T17:14:26.514Z,93.20
2019-02-06T17:17:22.259Z,122.93
2019-02-06T17:20:14.088Z,116.00
2019-02-06T17:23:34.571Z,128.40
2019-02-06T17:26:35.038Z,115.67
2019-02-06T17:29:39.121Z,111.57
2019-02-06T17:32:45.578Z,118.13
2019-02-06T17:36:00.130Z,115.90
2019-02-06T17:39:23.834Z,130.53
2019-02-06T17:41:58.581Z,117.53
2019-02-06T17:44:55.730Z,125.07
2019-02-06T17:47:49.018Z,120.53
2019-02-06T17:50:57.603Z,116.90
2019-02-06T17:53:53.439Z,120.30
2019-02-06T17:56:20.506Z,119.10
2019-02-06T17:58:47.837Z,135.87
2019-02-06T18:01:29.589Z,126.83
2019-02-06T18:04:04.776Z,114.70
2019-02-06T18:06:32.021Z,136.23
2019-02-06T18:08:59.538Z,119.90
2019-02-06T18:11:26.862Z,144.07
2019-02-06T18:13:53.885Z,123.63
2019-02-06T18:16:21.654Z,125.17
2019-02-06T18:18:48.817Z,132.63
2019-02-06T18:21:15.790Z,140.60
2019-02-06T18:23:42.722Z,122.47
2019-02-06T18:26:09.938Z,136.83
2019-02-06T18:28:37.745Z,134.43
2019-02-06T18:31:05.163Z,137.60
2019-02-06T18:33:32.284Z,107.60
2019-02-06T18:35:59.456Z,108.37
2019-02-06T18:38:26.569Z,125.27
2019-02-06T18:40:53.606Z,132.53
2019-02-06T18:43:21.658Z,118.37
2019-02-06T18:45:48.782Z,116.23
2019-02-06T18:48:17.792Z,113.63
2019-02-06T18:50:45.053Z,118.13
2019-02-06T18:53:12.503Z,126.50
2019-02-06T18:55:39.630Z,138.50
2019-02-06T18:58:08.106Z,147.07
2019-02-06T19:00:36.066Z,143.83
2019-02-06T19:03:06.001Z,135.50
2019-02-06T19:05:34.435Z,140.23
2019-02-06T19:08:01.445Z,143.23
2019-02-06T19:10:28.606Z,137.57
2019-02-06T19:12:57.558Z,157.90
2019-02-06T19:15:24.966Z,154.00
2019-02-06T19:17:52.282Z,162.93
2019-02-06T19:20:19.454Z,164.93
2019-02-06T19:22:46.464Z,168.63
2019-02-06T19:25:13.587Z,170.07
2019-02-06T19:27:40.779Z,174.47
2019-02-06T19:30:28.731Z,179.77
2019-02-06T19:32:56.086Z,207.43
2019-02-06T19:35:23.024Z,193.27
2019-02-06T19:37:50.130Z,212.57
2019-02-06T19:40:17.389Z,186.57
2019-02-06T19:42:44.534Z,218.10
2019-02-06T19:45:11.718Z,199.03
2019-02-06T19:47:38.872Z,217.20
2019-02-06T19:50:11.397Z,236.93
2019-02-06T19:52:38.445Z,190.53
2019-02-06T19:55:07.616Z,211.93
2019-02-06T19:57:34.662Z,187.13
2019-02-06T20:00:01.878Z,198.97
2019-02-06T20:02:29.043Z,168.83
2019-02-06T20:04:56.079Z,183.97
2019-02-06T20:07:23.244Z,162.60
2019-02-06T20:09:50.286Z,163.60
2019-02-06T20:12:17.220Z,193.83
2019-02-06T20:14:44.521Z,163.80
2019-02-06T20:17:11.574Z,166.20
2019-02-06T20:19:38.633Z,198.30
2019-02-06T20:22:05.743Z,161.63
2019-02-06T20:24:32.821Z,181.43
2019-02-06T20:26:59.851Z,156.60
2019-02-06T20:29:28.098Z,178.17
2019-02-06T20:31:55.357Z,198.87
2019-02-06T20:34:23.039Z,179.00
2019-02-06T20:36:50.458Z,167.67
2019-02-06T20:39:17.609Z,196.13
2019-02-06T20:41:44.551Z,211.67
2019-02-06T20:44:11.685Z,195.20
2019-02-06T20:46:38.660Z,212.60
2019-02-06T20:49:05.771Z,254.37
2019-02-06T20:51:32.830Z,236.60
2019-02-06T20:53:59.784Z,290.50
2019-02-06T20:56:27.308Z,273.97
2019-02-06T20:58:54.524Z,275.70
2019-02-06T21:01:22.790Z,243.67
2019-02-06T21:03:49.730Z,299.03
2019-02-06T21:06:16.653Z,327.17
2019-02-06T21:08:43.714Z,325.67
2019-02-06T21:11:10.730Z,336.87
2019-02-06T21:13:37.657Z,329.77
2019-02-06T21:16:04.999Z,376.57
2019-02-06T21:18:32.032Z,347.73
2019-02-06T21:20:59.398Z,356.90
2019-02-06T21:23:26.586Z,395.33
2019-02-06T21:25:53.729Z,455.33
2019-02-06T21:28:20.923Z,447.90
2019-02-06T21:30:47.842Z,465.40
2019-02-06T21:33:14.875Z,491.63
2019-02-06T21:35:42.178Z,492.53
2019-02-06T21:38:09.244Z,513.00
2019-02-06T21:40:36.281Z,561.90
2019-02-06T21:43:04.063Z,572.10
2019-02-06T21:45:31.259Z,579.83
2019-02-06T21:47:58.283Z,546.07
2019-02-06T21:50:25.815Z,538.53
2019-02-06T21:52:53.378Z,530.33
2019-02-06T21:55:20.654Z,509.00
2019-02-06T21:57:47.510Z,522.43
2019-02-06T22:00:29.029Z,515.10
2019-02-06T22:02:56.248Z,499.97
2019-02-06T22:05:23.570Z,479.70
2019-02-06T22:07:51.026Z,495.67
2019-02-06T22:10:19.089Z,436.03
2019-02-06T22:12:46.257Z,530.97
2019-02-06T22:15:16.135Z,477.40
2019-02-06T22:17:43.074Z,506.67
2019-02-06T22:20:10.302Z,480.90
2019-02-06T22:22:37.470Z,442.27
2019-02-06T22:25:05.017Z,453.37
2019-02-06T22:27:32.157Z,469.83
2019-02-06T22:29:59.249Z,448.47
2019-02-06T22:32:26.273Z,455.87
2019-02-06T22:34:53.220Z,412.27
2019-02-06T22:37:20.270Z,440.87
2019-02-06T22:39:47.190Z,386.20
2019-02-06T22:42:14.560Z,439.87
2019-02-06T22:44:41.501Z,367.70
2019-02-06T22:47:08.321Z,361.37
2019-02-06T22:49:35.373Z,355.37
2019-02-06T22:52:02.536Z,354.33
2019-02-06T22:54:29.438Z,339.50
2019-02-06T22:56:59.317Z,332.00
2019-02-06T22:59:27.160Z,347.27
2019-02-06T23:01:56.266Z,349.87
2019-02-06T23:04:23.265Z,329.70
2019-02-06T23:06:50.375Z,340.27
2019-02-06T23:09:17.411Z,271.70
2019-02-06T23:11:44.444Z,351.00
2019-02-06T23:14:17.531Z,403.43
2019-02-06T23:16:40.539Z,420.87
2019-02-06T23:19:07.550Z,379.13
2019-02-06T23:21:34.658Z,420.60
2019-02-06T23:24:01.770Z,361.33
2019-02-06T23:26:28.790Z,336.43
2019-02-06T23:28:55.763Z,431.70
2019-02-06T23:31:22.795Z,384.43
2019-02-06T23:33:49.808Z,387.40
2019-02-06T23:36:16.905Z,377.13
2019-02-06T23:38:43.882Z,421.97
2019-02-06T23:41:10.907Z,462.33
2019-02-06T23:43:38.065Z,452.73
2019-02-06T23:46:05.105Z,443.23
2019-02-06T23:48:32.193Z,437.73
2019-02-06T23:50:59.161Z,468.83
2019-02-06T23:53:26.592Z,458.47
2019-02-06T23:55:53.621Z,435.27
2019-02-06T23:58:20.584Z,483.67
